Time;durP1;ratioP1;P1;durP2;ratioP2;P2;SDS_P1;SDS_P2;PMS_P1;PMS_P2;Temp;Humidity;BMP_temperature;BMP_pressure;BME280_temperature;BME280_humidity;BME280_pressure;Samples;Min_cycle;Max_cycle;Signal;HPM_P1;HPM_P2
2023/07/10 00:00:20;;;;;;;8.30;3.40;;;;;;;22.05;66.55;101888.81;5093102;28;20093;-61
2023/07/10 00:02:47;;;;;;;9.48;3.90;;;;;;;21.98;66.05;101895.28;5093134;28;20542;-59
2023/07/10 00:05:14;;;;;;;8.65;3.70;;;;;;;21.94;66.53;101904.31;5093145;28;20062;-60
2023/07/10 00:07:41;;;;;;;8.57;3.38;;;;;;;21.93;66.47;101899.88;5093024;28;20381;-61
2023/07/10 00:10:10;;;;;;;9.52;3.63;;;;;;;21.97;66.63;101899.78;5093208;28;20055;-65
2023/07/10 00:12:35;;;;;;;9.35;3.45;;;;;;;21.85;66.92;101899.13;5093103;28;20024;-60
2023/07/10 00:15:01;;;;;;;9.90;3.88;;;;;;;21.89;66.80;101907.09;5092994;28;20489;-60
2023/07/10 00:17:26;;;;;;;10.38;3.63;;;;;;;21.88;66.84;101913.38;5092908;28;20044;-61
2023/07/10 00:19:51;;;;;;;8.90;3.45;;;;;;;21.97;66.84;101901.56;5074687;28;20489;-60
2023/07/10 00:22:17;;;;;;;9.00;3.08;;;;;;;21.99;66.41;101891.66;5092848;28;20036;-61
2023/07/10 00:24:42;;;;;;;8.13;3.13;;;;;;;21.91;67.00;101907.94;5092883;28;20111;-61
2023/07/10 00:27:12;;;;;;;13.13;3.95;;;;;;;21.90;66.86;101914.25;5074442;28;20388;-61
2023/07/10 00:29:38;;;;;;;10.45;3.45;;;;;;;21.92;67.35;101915.09;5093079;28;20062;-63
2023/07/10 00:32:12;;;;;;;8.32;3.60;;;;;;;21.98;67.72;101912.31;5092788;28;20039;-60
2023/07/10 00:34:38;;;;;;;10.88;3.63;;;;;;;21.94;68.50;101907.00;5092865;28;20413;-62
2023/07/10 00:37:04;;;;;;;12.13;4.00;;;;;;;22.00;68.63;101893.41;5092778;28;20067;-61
2023/07/10 00:39:32;;;;;;;10.15;3.50;;;;;;;21.99;69.08;101910.50;5092898;28;20052;-61
2023/07/10 00:42:01;;;;;;;9.82;3.60;;;;;;;21.82;69.42;101900.06;5093076;28;20016;-60
2023/07/10 00:44:35;;;;;;;8.60;3.78;;;;;;;21.81;69.47;101892.91;5096730;28;20024;-60
2023/07/10 00:47:09;;;;;;;9.15;3.67;;;;;;;21.73;69.70;101890.34;5096820;28;20037;-62
2023/07/10 00:49:46;;;;;;;6.88;3.33;;;;;;;21.72;70.23;101906.53;5096662;28;20034;-60
2023/07/10 00:52:20;;;;;;;8.68;3.28;;;;;;;21.60;70.02;101914.81;5096537;28;20031;-60
2023/07/10 00:54:51;;;;;;;7.75;3.50;;;;;;;21.45;70.39;101913.28;5096546;28;20028;-61
2023/07/10 00:57:33;;;;;;;7.97;3.73;;;;;;;21.35;70.30;101915.25;5096086;28;20465;-63
2023/07/10 01:00:00;;;;;;;9.52;3.60;;;;;;;21.29;69.93;101917.13;5096246;28;20325;-61
2023/07/10 01:02:26;;;;;;;7.97;3.42;;;;;;;21.35;70.47;101919.75;5096672;28;20020;-62
2023/07/10 01:05:09;;;;;;;9.57;3.40;;;;;;;21.53;69.55;101919.41;5096313;28;20077;-61
2023/07/10 01:07:46;;;;;;;9.00;3.90;;;;;;;21.50;69.47;101900.66;5078044;28;20032;-60
2023/07/10 01:10:12;;;;;;;7.72;3.25;;;;;;;21.42;69.97;101890.03;5096342;28;20028;-63
2023/07/10 01:12:40;;;;;;;8.02;3.45;;;;;;;21.39;70.32;101902.63;5095997;28;20093;-61
2023/07/10 01:15:06;;;;;;;6.53;3.25;;;;;;;21.36;70.48;101908.94;5096266;28;20016;-60
2023/07/10 01:17:33;;;;;;;11.95;3.22;;;;;;;21.32;70.16;101912.59;5077696;28;20044;-61
2023/07/10 01:20:05;;;;;;;7.18;3.05;;;;;;;21.33;69.81;101903.66;5095824;28;20065;-60
2023/07/10 01:22:30;;;;;;;6.90;3.03;;;;;;;21.34;69.86;101912.59;5077787;28;20048;-61
2023/07/10 01:24:56;;;;;;;9.00;3.13;;;;;;;21.29;69.88;101920.72;5096169;28;20144;-61
2023/07/10 01:27:22;;;;;;;7.38;3.10;;;;;;;21.31;69.92;101923.34;5095520;28;20023;-61
2023/07/10 01:30:02;;;;;;;7.30;2.95;;;;;;;21.28;69.33;101916.22;5095767;28;20028;-60
2023/07/10 01:32:28;;;;;;;7.70;3.08;;;;;;;21.34;70.06;101916.16;5095775;28;20046;-60
2023/07/10 01:34:58;;;;;;;10.32;3.25;;;;;;;21.30;69.35;101910.84;5095685;28;20024;-61
2023/07/10 01:37:24;;;;;;;9.23;3.08;;;;;;;21.23;70.07;101902.84;5096214;28;20032;-61
2023/07/10 01:39:52;;;;;;;6.82;3.03;;;;;;;21.11;69.79;101897.72;5095750;28;20028;-61
2023/07/10 01:42:18;;;;;;;5.32;2.83;;;;;;;21.11;70.13;101897.72;5095713;28;20024;-61
2023/07/10 01:44:46;;;;;;;8.82;3.17;;;;;;;21.09;69.80;101898.63;5095428;28;20491;-61
2023/07/10 01:47:13;;;;;;;7.97;3.05;;;;;;;21.09;69.85;101902.19;5095418;28;20020;-62
2023/07/10 01:49:57;;;;;;;6.65;3.20;;;;;;;21.03;70.24;101905.00;5095425;28;20049;-61
2023/07/10 01:52:24;;;;;;;8.88;3.05;;;;;;;21.02;69.67;101917.53;5095431;28;20420;-60
2023/07/10 01:54:50;;;;;;;7.55;2.80;;;;;;;21.01;69.90;101913.06;5095497;28;20028;-61
2023/07/10 01:57:17;;;;;;;7.43;2.97;;;;;;;20.98;70.07;101922.97;5095039;28;20031;-61
2023/07/10 01:59:43;;;;;;;6.30;3.17;;;;;;;21.14;70.05;101919.13;5095384;28;20099;-60
2023/07/10 02:02:09;;;;;;;7.13;3.00;;;;;;;21.20;69.90;101911.00;5095236;28;20067;-60
2023/07/10 02:04:34;;;;;;;7.50;3.30;;;;;;;21.08;70.00;101905.81;5095098;28;20031;-62
2023/07/10 02:07:00;;;;;;;6.97;3.00;;;;;;;21.09;70.12;101899.50;5095015;28;20074;-60
2023/07/10 02:09:28;;;;;;;8.00;3.05;;;;;;;20.86;71.48;101905.25;5095028;28;20028;-61
2023/07/10 02:11:55;;;;;;;6.38;3.17;;;;;;;20.84;71.44;101917.81;5094954;28;20530;-61
2023/07/10 02:14:21;;;;;;;9.02;3.28;;;;;;;20.83;71.13;101904.41;5094892;28;20085;-60
2023/07/10 02:16:47;;;;;;;6.65;3.10;;;;;;;20.68;71.86;101901.00;5094808;28;20043;-61
2023/07/10 02:19:13;;;;;;;5.68;3.05;;;;;;;20.61;72.69;101910.09;5094684;28;20027;-60
2023/07/10 02:21:39;;;;;;;6.38;3.00;;;;;;;20.53;72.20;101914.69;5094817;28;20028;-61
2023/07/10 02:24:05;;;;;;;6.95;3.10;;;;;;;20.38;72.52;101913.03;5094772;28;20028;-61
2023/07/10 02:26:31;;;;;;;6.68;3.20;;;;;;;20.39;72.33;101919.31;5094449;28;20488;-61
2023/07/10 02:28:57;;;;;;;8.43;3.13;;;;;;;20.40;72.09;101921.97;5094738;28;20039;-60
2023/07/10 02:31:24;;;;;;;7.07;3.47;;;;;;;20.43;72.09;101927.31;5094566;28;20032;-60
2023/07/10 02:33:49;;;;;;;7.47;3.53;;;;;;;20.44;72.13;101930.88;5094861;28;20019;-62
2023/07/10 02:36:15;;;;;;;8.35;3.25;;;;;;;20.53;71.89;101929.91;5094749;28;20028;-61
2023/07/10 02:38:40;;;;;;;8.68;3.40;;;;;;;20.60;71.74;101940.53;5094688;28;20552;-60
2023/07/10 02:41:06;;;;;;;9.82;3.90;;;;;;;20.52;71.54;101936.19;5094215;28;20032;-61
2023/07/10 02:43:31;;;;;;;7.70;3.40;;;;;;;20.50;71.81;101933.50;5094626;28;20035;-61
2023/07/10 02:45:57;;;;;;;7.07;3.40;;;;;;;20.45;72.19;101928.16;5094235;28;20078;-61
2023/07/10 02:48:22;;;;;;;7.68;3.53;;;;;;;20.41;72.01;101936.28;5094577;28;20032;-62
2023/07/10 02:50:47;;;;;;;7.50;3.20;;;;;;;20.36;72.01;101932.75;5094310;28;20493;-61
2023/07/10 02:53:13;;;;;;;7.50;3.60;;;;;;;20.37;71.91;101938.09;5094191;28;20111;-62
2023/07/10 02:55:38;;;;;;;6.20;3.42;;;;;;;20.37;71.73;101935.41;5075943;28;20028;-60
2023/07/10 02:58:05;;;;;;;6.75;3.25;;;;;;;20.37;71.85;101934.53;5075926;28;20443;-61
2023/07/10 03:00:30;;;;;;;7.85;3.30;;;;;;;20.39;72.08;101932.72;5094113;28;20059;-61
2023/07/10 03:02:56;;;;;;;8.57;3.42;;;;;;;20.36;71.99;101936.34;5093970;28;20086;-61
2023/07/10 03:05:23;;;;;;;10.25;3.58;;;;;;;20.23;72.18;101945.44;5093570;28;20086;-60
2023/07/10 03:07:48;;;;;;;7.72;3.50;;;;;;;20.22;72.40;101949.03;5093936;28;20116;-60
2023/07/10 03:10:14;;;;;;;7.60;3.47;;;;;;;20.21;72.73;101952.59;5093890;28;20533;-60
2023/07/10 03:12:39;;;;;;;9.68;3.70;;;;;;;20.22;72.73;101951.72;5093834;28;20107;-60
2023/07/10 03:15:06;;;;;;;9.23;4.03;;;;;;;20.16;73.08;101946.41;5075560;28;20027;-61
2023/07/10 03:17:32;;;;;;;7.60;3.17;;;;;;;20.18;72.80;101949.97;5093596;28;20124;-61
2023/07/10 03:19:57;;;;;;;7.00;3.80;;;;;;;20.09;73.47;101948.28;5093667;28;20080;-61
2023/07/10 03:22:23;;;;;;;7.07;3.72;;;;;;;20.21;72.94;101958.91;5082387;28;20037;-62
2023/07/10 03:24:51;;;;;;;8.25;3.60;;;;;;;20.13;73.62;101960.78;5073298;28;20024;-62
2023/07/10 03:27:17;;;;;;;9.18;4.47;;;;;;;20.06;73.59;101969.78;5073079;28;20039;-60
2023/07/10 03:29:42;;;;;;;11.27;4.13;;;;;;;19.99;74.52;101965.38;5073306;28;20029;-61
2023/07/10 03:32:08;;;;;;;8.93;4.32;;;;;;;19.91;74.79;101969.94;5073160;28;20057;-61
2023/07/10 03:34:33;;;;;;;8.95;4.30;;;;;;;19.73;75.36;101966.53;5073096;28;20048;-60
2023/07/10 03:36:59;;;;;;;12.68;4.55;;;;;;;19.72;76.35;101969.22;5072962;28;20107;-60
2023/07/10 03:39:24;;;;;;;8.90;4.63;;;;;;;19.72;76.27;101969.22;5072921;28;20429;-61
2023/07/10 03:41:49;;;;;;;11.60;4.68;;;;;;;19.76;76.08;101976.34;5072690;28;20038;-61
2023/07/10 03:44:15;;;;;;;8.48;5.43;;;;;;;19.70;76.79;101969.25;5072620;28;20477;-60
2023/07/10 03:46:40;;;;;;;12.60;6.40;;;;;;;19.70;76.93;101971.94;5054505;28;20399;-62
2023/07/10 03:49:06;;;;;;;14.35;5.47;;;;;;;19.69;77.20;101975.50;5072513;28;20025;-61
2023/07/10 03:51:31;;;;;;;12.18;5.63;;;;;;;19.68;77.70;101975.53;5072528;28;20055;-61
2023/07/10 03:53:57;;;;;;;14.77;5.75;;;;;;;19.67;77.60;101965.69;5054774;28;20069;-61
2023/07/10 03:56:22;;;;;;;9.77;5.80;;;;;;;19.58;78.36;101961.28;5054221;28;20024;-65
2023/07/10 03:58:49;;;;;;;13.40;5.95;;;;;;;19.54;78.55;101980.09;5072459;28;20390;-61
2023/07/10 04:01:15;;;;;;;15.68;6.15;;;;;;;19.48;78.65;101981.88;5072380;28;20385;-61
2023/07/10 04:03:41;;;;;;;9.18;5.80;;;;;;;19.37;79.39;101980.22;5072592;28;20037;-61
2023/07/10 04:06:10;;;;;;;14.57;6.40;;;;;;;19.33;79.33;101983.81;5072317;28;20078;-60
2023/07/10 04:08:40;;;;;;;11.95;6.30;;;;;;;19.43;79.83;101989.09;5072313;28;20355;-60
2023/07/10 04:11:25;;;;;;;10.15;5.85;;;;;;;19.42;79.43;101998.03;5072224;28;20071;-62
2023/07/10 04:13:50;;;;;;;12.55;6.35;;;;;;;19.48;78.64;101997.97;5072218;28;20068;-62
2023/07/10 04:16:22;;;;;;;8.77;6.40;;;;;;;19.51;78.55;101999.75;5072198;28;20083;-61
2023/07/10 04:18:50;;;;;;;11.25;6.38;;;;;;;19.59;78.61;102008.63;5074790;28;20047;-61
2023/07/10 04:21:21;;;;;;;12.65;6.43;;;;;;;19.60;78.21;102010.41;5075260;28;20059;-60
2023/07/10 04:23:47;;;;;;;10.15;6.43;;;;;;;19.62;77.95;101999.72;5080855;28;20012;-60
2023/07/10 04:26:17;;;;;;;11.95;6.72;;;;;;;19.51;78.66;101995.28;5094808;28;20052;-61
2023/07/10 04:28:45;;;;;;;11.95;6.43;;;;;;;19.51;79.12;101992.59;5095304;28;20085;-61
2023/07/10 04:31:10;;;;;;;11.40;7.05;;;;;;;19.60;78.03;101997.00;5094810;28;20050;-61
2023/07/10 04:33:36;;;;;;;11.38;6.30;;;;;;;19.68;77.85;101999.66;5094926;28;20031;-60
2023/07/10 04:36:02;;;;;;;12.90;6.20;;;;;;;19.78;77.46;101995.97;5094637;28;20058;-60
2023/07/10 04:38:28;;;;;;;11.32;6.18;;;;;;;19.87;77.11;102008.41;5095099;28;20056;-60
2023/07/10 04:40:59;;;;;;;11.10;6.55;;;;;;;19.97;76.63;102008.31;5076280;28;20122;-60
2023/07/10 04:43:25;;;;;;;10.65;5.93;;;;;;;20.08;76.59;102001.97;5076513;28;20085;-60
2023/07/10 04:45:55;;;;;;;14.23;6.28;;;;;;;19.95;76.91;102002.06;5094838;28;20059;-60
2023/07/10 04:48:24;;;;;;;10.35;6.28;;;;;;;20.03;76.65;102007.38;5094804;28;20043;-61
2023/07/10 04:50:51;;;;;;;10.20;6.00;;;;;;;20.06;76.50;102003.78;5094574;28;20036;-61
2023/07/10 04:53:18;;;;;;;11.38;6.50;;;;;;;20.06;76.39;102006.47;5094627;28;20016;-61
2023/07/10 04:55:46;;;;;;;11.30;6.40;;;;;;;20.14;76.13;102002.78;5094638;28;20395;-61
2023/07/10 04:58:12;;;;;;;10.23;6.53;;;;;;;20.26;75.58;102009.84;5094808;28;20377;-61
2023/07/10 05:00:37;;;;;;;12.57;6.95;;;;;;;20.22;75.47;102014.34;5094400;28;20020;-61
2023/07/10 05:03:04;;;;;;;10.63;6.65;;;;;;;20.24;75.63;102017.88;5094547;28;20032;-61
2023/07/10 05:05:30;;;;;;;14.48;7.38;;;;;;;20.20;76.12;102017.94;5094768;28;20032;-61
2023/07/10 05:07:55;;;;;;;14.73;7.38;;;;;;;20.22;76.23;102022.41;5094298;28;20129;-61
2023/07/10 05:10:20;;;;;;;13.27;7.35;;;;;;;20.23;76.23;102021.47;5094547;28;20036;-60
2023/07/10 05:12:46;;;;;;;13.82;7.05;;;;;;;20.24;76.24;102022.38;5094540;28;20111;-60
2023/07/10 05:15:11;;;;;;;11.05;7.43;;;;;;;20.28;76.19;102008.00;5094441;28;20469;-60
2023/07/10 05:17:37;;;;;;;17.40;7.35;;;;;;;20.37;76.55;102021.31;5055352;28;1119198;-61
2023/07/10 05:20:02;;;;;;;14.10;7.85;;;;;;;20.38;76.22;102020.41;5095255;28;20043;-61
2023/07/10 05:22:28;;;;;;;12.93;7.65;;;;;;;20.41;75.81;102023.06;5095666;28;20036;-61
2023/07/10 05:24:53;;;;;;;14.82;7.80;;;;;;;20.52;76.19;102032.84;5095316;28;20024;-60
2023/07/10 05:27:19;;;;;;;11.25;7.60;;;;;;;20.50;76.41;102028.38;5095043;28;20032;-60
2023/07/10 05:29:44;;;;;;;13.43;7.25;;;;;;;20.66;76.42;102037.16;5094697;28;20403;-61
2023/07/10 05:32:10;;;;;;;12.05;7.18;;;;;;;20.75;75.74;102030.78;5095554;28;20141;-61
2023/07/10 05:34:35;;;;;;;15.48;7.70;;;;;;;20.69;75.85;102030.84;5095182;28;20477;-61
2023/07/10 05:37:00;;;;;;;13.43;7.85;;;;;;;20.86;76.46;102031.53;5095219;28;20118;-61
2023/07/10 05:39:29;;;;;;;13.45;7.57;;;;;;;20.96;75.32;102033.19;5094970;28;20103;-61
2023/07/10 05:41:55;;;;;;;11.15;7.28;;;;;;;21.09;75.29;102036.59;5094982;28;20105;-60
2023/07/10 05:44:20;;;;;;;15.75;7.60;;;;;;;21.15;74.18;102035.59;5094968;28;20071;-60
2023/07/10 05:46:45;;;;;;;13.68;7.30;;;;;;;21.09;74.37;102033.91;5094964;28;20034;-61
2023/07/10 05:49:11;;;;;;;15.27;7.20;;;;;;;21.21;74.79;102033.72;5094990;28;20461;-61
2023/07/10 05:51:36;;;;;;;14.70;7.30;;;;;;;21.21;73.60;102030.16;5094975;28;20024;-60
2023/07/10 05:54:02;;;;;;;11.95;7.03;;;;;;;21.31;72.78;102030.91;5094978;28;20032;-61
2023/07/10 05:56:27;;;;;;;12.10;6.50;;;;;;;21.39;72.44;102029.91;5094455;28;20097;-60
2023/07/10 05:58:52;;;;;;;10.50;6.45;;;;;;;21.48;72.57;102028.88;5094702;28;20028;-60
2023/07/10 06:01:18;;;;;;;13.38;6.60;;;;;;;21.57;72.46;102031.41;5094534;28;20111;-60
2023/07/10 06:03:44;;;;;;;12.90;6.22;;;;;;;21.71;72.22;102028.50;5094639;28;20431;-61
2023/07/10 06:06:10;;;;;;;12.15;6.75;;;;;;;21.82;70.98;102025.63;5094797;28;20149;-60
2023/07/10 06:08:36;;;;;;;10.57;6.35;;;;;;;21.79;70.65;102023.88;5094315;28;20052;-61
2023/07/10 06:11:02;;;;;;;10.23;5.95;;;;;;;21.93;70.27;102032.63;5093870;28;20036;-59
2023/07/10 06:13:27;;;;;;;10.18;6.05;;;;;;;22.05;69.98;102036.88;5094522;28;20081;-59
2023/07/10 06:15:55;;;;;;;14.55;6.05;;;;;;;22.09;70.06;102027.84;5094217;28;20028;-61
2023/07/10 06:18:21;;;;;;;13.40;6.18;;;;;;;22.22;69.84;102033.91;5093401;28;20040;-61
2023/07/10 06:20:52;;;;;;;11.60;6.00;;;;;;;22.25;69.28;102034.75;5094095;28;20040;-60
2023/07/10 06:23:18;;;;;;;10.40;5.80;;;;;;;22.31;68.62;102040.94;5094088;28;20546;-60
2023/07/10 06:25:44;;;;;;;9.90;5.70;;;;;;;22.41;68.30;102043.44;5094250;28;20032;-61
2023/07/10 06:28:10;;;;;;;12.13;5.78;;;;;;;22.50;67.11;102043.25;5093974;28;20021;-61
2023/07/10 06:30:52;;;;;;;10.02;5.47;;;;;;;22.54;67.51;102049.47;5094004;28;20024;-60
2023/07/10 06:33:17;;;;;;;10.50;5.28;;;;;;;22.59;65.91;102052.94;5093981;28;20158;-60
2023/07/10 06:35:43;;;;;;;12.65;5.22;;;;;;;22.74;65.83;102051.78;5093968;28;20107;-60
2023/07/10 06:38:08;;;;;;;11.73;5.03;;;;;;;22.74;64.14;102058.03;5093480;28;20099;-59
2023/07/10 06:40:33;;;;;;;9.15;4.97;;;;;;;22.81;63.77;102057.91;5091987;28;20028;-61
2023/07/10 06:42:59;;;;;;;10.88;4.65;;;;;;;22.91;63.94;102062.19;5074551;28;20056;-60
2023/07/10 06:45:24;;;;;;;11.45;5.47;;;;;;;22.98;63.42;102059.34;5093182;28;20032;-60
2023/07/10 06:47:50;;;;;;;10.40;5.10;;;;;;;23.08;63.82;102060.03;5092988;28;20020;-60
2023/07/10 06:50:16;;;;;;;8.55;4.60;;;;;;;23.29;62.62;102065.88;5093361;28;20059;-61
2023/07/10 06:52:43;;;;;;;9.00;4.80;;;;;;;23.34;60.99;102061.25;5092951;28;20028;-60
2023/07/10 06:55:12;;;;;;;11.32;5.28;;;;;;;23.35;61.42;102060.34;5093290;28;20030;-60
2023/07/10 06:57:38;;;;;;;8.25;4.97;;;;;;;23.27;60.54;102056.94;5093382;28;20057;-61
2023/07/10 07:00:07;;;;;;;8.68;4.50;;;;;;;23.40;61.48;102069.22;5093200;28;20023;-60
2023/07/10 07:02:32;;;;;;;9.63;4.95;;;;;;;23.48;60.26;102067.25;5093337;28;20074;-61
2023/07/10 07:04:58;;;;;;;11.57;4.97;;;;;;;23.60;59.82;102066.06;5075131;28;20024;-61
2023/07/10 07:07:23;;;;;;;10.48;5.03;;;;;;;23.75;60.52;102060.31;5093188;28;20024;-60
2023/07/10 07:09:49;;;;;;;11.45;5.03;;;;;;;23.81;58.54;102059.25;5093237;28;20077;-61
2023/07/10 07:12:14;;;;;;;9.77;4.95;;;;;;;24.05;59.14;102065.88;5093612;28;20067;-60
2023/07/10 07:14:39;;;;;;;16.13;4.68;;;;;;;24.24;58.50;102054.53;5093470;28;20027;-61
2023/07/10 07:17:05;;;;;;;11.40;5.00;;;;;;;24.55;57.74;102058.25;5093142;28;20127;-60
2023/07/10 07:19:33;;;;;;;10.18;4.50;;;;;;;24.50;56.36;102058.38;5093121;28;20036;-61
2023/07/10 07:22:00;;;;;;;10.65;4.72;;;;;;;24.63;56.59;102057.09;5093071;28;20024;-60
2023/07/10 07:24:25;;;;;;;11.07;4.82;;;;;;;24.62;56.13;102057.13;5093262;28;20509;-59
2023/07/10 07:26:51;;;;;;;10.57;4.50;;;;;;;24.93;56.81;102065.25;5092775;28;20119;-61
2023/07/10 07:29:16;;;;;;;9.43;4.20;;;;;;;25.04;54.09;102057.69;5093026;28;20024;-60
2023/07/10 07:31:42;;;;;;;11.15;3.90;;;;;;;25.16;54.59;102061.88;5092873;28;20028;-60
2023/07/10 07:34:08;;;;;;;12.18;4.32;;;;;;;25.19;53.23;102072.63;5093073;28;20126;-60
2023/07/10 07:36:34;;;;;;;7.75;4.50;;;;;;;25.23;54.13;102079.69;5092755;28;20393;-60
2023/07/10 07:39:04;;;;;;;10.32;4.50;;;;;;;25.19;53.32;102076.19;5092848;28;20481;-60
2023/07/10 07:41:31;;;;;;;10.05;4.00;;;;;;;25.26;53.74;102078.69;5074909;28;20024;-60
2023/07/10 07:43:58;;;;;;;8.63;3.92;;;;;;;25.52;53.03;102077.88;5092652;28;20526;-60
2023/07/10 07:46:23;;;;;;;10.77;4.38;;;;;;;25.66;52.63;102083.75;5092758;28;20082;-60
2023/07/10 07:48:49;;;;;;;9.60;4.10;;;;;;;25.85;53.00;102073.22;5092583;28;20027;-59
2023/07/10 07:51:14;;;;;;;14.38;4.45;;;;;;;25.89;50.60;102085.72;5092526;28;20039;-60
2023/07/10 07:53:43;;;;;;;12.75;4.55;;;;;;;25.88;51.36;102081.25;5092613;28;20032;-60
2023/07/10 07:56:09;;;;;;;8.23;4.35;;;;;;;25.96;51.15;102080.06;5092511;28;20358;-60
2023/07/10 07:58:35;;;;;;;10.63;3.80;;;;;;;26.04;50.50;102076.19;5092667;28;20518;-60
2023/07/10 08:01:00;;;;;;;8.75;4.00;;;;;;;26.17;51.04;102078.44;5092748;28;20055;-59
2023/07/10 08:03:27;;;;;;;9.18;3.90;;;;;;;26.34;49.19;102071.53;5092606;28;20031;-60
2023/07/10 08:05:53;;;;;;;9.13;3.67;;;;;;;26.32;48.60;102065.28;5092487;28;20032;-58
2023/07/10 08:08:18;;;;;;;9.07;3.92;;;;;;;26.28;49.38;102069.91;5092278;28;20035;-60
2023/07/10 08:10:46;;;;;;;10.50;3.80;;;;;;;26.53;49.14;102058.22;5092268;28;20031;-58
2023/07/10 08:13:13;;;;;;;8.20;3.65;;;;;;;26.64;48.75;102050.59;5092040;28;20370;-60
2023/07/10 08:15:39;;;;;;;10.40;3.83;;;;;;;26.83;47.79;102051.66;5092416;28;20031;-58
2023/07/10 08:18:05;;;;;;;9.77;3.58;;;;;;;27.06;47.74;102055.31;5091803;28;20036;-59
2023/07/10 08:20:31;;;;;;;6.38;3.10;;;;;;;27.07;46.23;102057.97;5092115;28;20032;-59
2023/07/10 08:22:56;;;;;;;8.65;3.40;;;;;;;26.89;47.40;102064.09;5091877;28;20076;-59
2023/07/10 08:25:22;;;;;;;7.30;3.30;;;;;;;27.10;47.02;102059.72;5092203;28;20111;-59
2023/07/10 08:27:47;;;;;;;9.48;3.25;;;;;;;27.29;44.69;102062.59;5091957;28;20483;-59
2023/07/10 08:30:16;;;;;;;10.18;3.30;;;;;;;27.29;46.07;102063.47;5092189;28;20039;-59
2023/07/10 08:32:42;;;;;;;8.50;3.22;;;;;;;27.59;45.31;102065.91;5092248;28;20043;-59
2023/07/10 08:35:08;;;;;;;8.20;3.10;;;;;;;27.63;45.36;102070.25;5092085;28;20486;-58
2023/07/10 08:37:36;;;;;;;9.63;3.30;;;;;;;27.66;43.96;102073.72;5092165;28;20020;-59
2023/07/10 08:40:02;;;;;;;9.43;3.20;;;;;;;27.80;44.14;102066.88;5092028;28;20028;-58
2023/07/10 08:42:30;;;;;;;9.07;3.42;;;;;;;27.80;43.01;102064.16;5092301;28;20028;-58
2023/07/10 08:44:56;;;;;;;8.73;3.08;;;;;;;28.00;43.38;102066.91;5092140;28;20020;-59
2023/07/10 08:47:30;;;;;;;8.48;3.08;;;;;;;28.21;43.14;102052.38;5092355;28;20074;-59
2023/07/10 08:50:28;;;;;;;9.60;3.58;;;;;;;28.41;43.53;102058.81;5092040;28;20024;-59
2023/07/10 08:53:02;;;;;;;9.20;2.90;;;;;;;28.50;42.39;102054.78;5091789;28;20481;-59
2023/07/10 08:55:43;;;;;;;7.65;3.13;;;;;;;28.52;42.49;102051.03;5091940;28;20027;-58
2023/07/10 08:58:36;;;;;;;9.10;3.10;;;;;;;28.53;42.94;102052.81;5091984;28;20027;-57
2023/07/10 09:01:10;;;;;;;10.20;3.10;;;;;;;28.50;40.60;102058.41;5091177;28;20440;-59
2023/07/10 09:03:41;;;;;;;8.63;2.72;;;;;;;28.60;40.59;102050.69;5093258;28;20032;-58
2023/07/10 09:06:18;;;;;;;11.55;2.78;;;;;;;28.57;39.22;102068.06;5092354;28;20047;-58
2023/07/10 09:08:51;;;;;;;7.93;2.90;;;;;;;28.76;38.27;102056.31;5075389;28;20020;-58
2023/07/10 09:11:17;;;;;;;8.10;2.53;;;;;;;28.82;38.61;102065.09;5075067;28;20036;-58
2023/07/10 09:13:50;;;;;;;7.05;2.70;;;;;;;28.98;38.50;102072.56;5075285;28;20074;-58
2023/07/10 09:16:19;;;;;;;8.30;2.83;;;;;;;28.79;38.75;102069.78;5075194;28;20474;-58
2023/07/10 09:18:53;;;;;;;7.35;2.75;;;;;;;29.03;39.01;102054.16;5074278;28;20128;-58
2023/07/10 09:21:28;;;;;;;7.35;2.60;;;;;;;29.11;37.94;102058.28;5074959;28;20031;-59
2023/07/10 09:23:54;;;;;;;11.25;2.88;;;;;;;29.42;37.70;102056.78;5075070;28;20036;-58
2023/07/10 09:26:31;;;;;;;8.38;2.72;;;;;;;29.58;37.63;102054.25;5075136;28;20021;-60
2023/07/10 09:29:14;;;;;;;8.35;2.60;;;;;;;29.42;38.96;102064.97;5074859;28;20032;-58
2023/07/10 09:32:07;;;;;;;8.80;3.03;;;;;;;29.45;37.83;102062.09;5075270;28;20104;-59
2023/07/10 09:34:34;;;;;;;9.02;3.00;;;;;;;29.56;37.23;102058.91;5074822;28;20055;-58
2023/07/10 09:37:03;;;;;;;6.78;2.50;;;;;;;29.89;36.45;102057.19;5074918;28;20070;-59
2023/07/10 09:39:31;;;;;;;7.07;2.55;;;;;;;30.04;34.59;102058.25;5074634;28;20033;-58
2023/07/10 09:41:58;;;;;;;7.07;2.50;;;;;;;30.12;34.96;102064.19;5074843;28;20016;-59
2023/07/10 09:44:32;;;;;;;5.85;2.60;;;;;;;30.23;34.17;102063.63;5056988;28;20378;-59
2023/07/10 09:47:07;;;;;;;6.22;2.47;;;;;;;30.20;35.57;102058.38;5074886;28;20032;-60
2023/07/10 09:49:35;;;;;;;9.10;2.90;;;;;;;30.28;34.81;102067.03;5074466;28;20027;-59
2023/07/10 09:52:13;;;;;;;8.45;2.90;;;;;;;30.36;33.91;102052.97;5074733;28;20445;-58
2023/07/10 09:54:39;;;;;;;8.70;2.78;;;;;;;30.37;34.88;102054.75;5074488;28;20063;-60
2023/07/10 09:57:16;;;;;;;7.00;2.63;;;;;;;30.52;34.51;102055.75;5074385;28;20020;-59
2023/07/10 09:59:54;;;;;;;6.85;2.80;;;;;;;30.47;34.58;102060.59;5074305;28;20029;-59
2023/07/10 10:02:42;;;;;;;6.63;2.35;;;;;;;30.53;35.57;102063.84;5074769;28;20056;-58
2023/07/10 10:05:10;;;;;;;8.82;2.50;;;;;;;30.67;35.54;102064.00;5074265;28;20031;-58
2023/07/10 10:07:42;;;;;;;9.52;2.67;;;;;;;30.71;34.10;102050.16;5074356;28;20027;-58
2023/07/10 10:10:25;;;;;;;;;;;;;;;31.33;35.06;102054.03;5074690;28;20024;-57
2023/07/10 10:13:06;;;;;;;6.43;2.60;;;;;;;31.35;33.73;102052.09;5074409;28;19908;-58
2023/07/10 10:15:48;;;;;;;6.53;2.33;;;;;;;31.61;32.88;102056.06;5072896;28;20182;-58
2023/07/10 10:18:41;;;;;;;23.45;2.88;;;;;;;31.77;33.44;102053.28;5073854;28;20052;-58
2023/07/10 10:21:11;;;;;;;10.20;2.65;;;;;;;31.24;32.14;102049.06;5061677;28;20036;-59
2023/07/10 10:23:39;;;;;;;7.22;2.78;;;;;;;31.20;32.51;102044.75;5074130;28;20035;-60
2023/07/10 10:26:33;;;;;;;8.15;2.75;;;;;;;31.08;33.83;102035.41;5073564;28;20031;-59
2023/07/10 10:29:36;;;;;;;11.07;2.80;;;;;;;31.26;33.54;102041.66;5073892;28;20039;-60
2023/07/10 10:32:07;;;;;;;7.57;2.63;;;;;;;31.29;33.46;102046.97;5073602;28;20036;-59
2023/07/10 10:34:43;;;;;;;10.13;2.75;;;;;;;31.40;33.91;102042.66;5073833;28;20036;-60
2023/07/10 10:37:34;;;;;;;6.28;2.70;;;;;;;31.09;34.37;102039.88;5073783;28;20048;-58
2023/07/10 10:40:10;;;;;;;10.27;2.83;;;;;;;31.20;34.02;102048.34;5073634;28;20094;-60
2023/07/10 10:42:49;;;;;;;5.68;2.63;;;;;;;31.31;34.21;102048.66;5073774;28;20036;-58
2023/07/10 10:45:56;;;;;;;7.55;2.35;;;;;;;31.08;33.23;102049.91;5073553;28;20033;-61
2023/07/10 10:48:28;;;;;;;7.53;2.60;;;;;;;31.23;33.50;102042.72;5069309;28;20393;-58
2023/07/10 10:51:14;;;;;;;10.25;2.90;;;;;;;31.61;32.62;102026.00;5073505;28;20094;-59
2023/07/10 10:53:40;;;;;;;7.22;2.70;;;;;;;31.59;31.81;102044.31;5073120;28;20031;-60
2023/07/10 10:56:17;;;;;;;12.48;2.97;;;;;;;31.61;31.97;102053.31;5073189;28;20033;-59
2023/07/10 10:58:52;;;;;;;7.10;2.80;;;;;;;31.59;32.25;102047.91;5073329;28;20028;-60
2023/07/10 11:01:40;;;;;;;6.32;2.40;;;;;;;31.75;33.34;102041.56;5073360;28;20382;-59
2023/07/10 11:04:28;;;;;;;9.48;2.80;;;;;;;32.13;32.66;102056.56;5073122;28;20082;-60
2023/07/10 11:07:11;;;;;;;7.45;2.53;;;;;;;32.22;32.90;102055.13;5073302;28;20032;-59
2023/07/10 11:09:44;;;;;;;8.80;2.70;;;;;;;32.56;30.95;102055.81;5073031;28;20539;-58
2023/07/10 11:12:21;;;;;;;6.18;2.40;;;;;;;32.58;30.68;102048.38;5073033;28;20117;-59
2023/07/10 11:14:50;;;;;;;7.03;2.70;;;;;;;32.17;30.93;102049.94;5073284;28;20048;-59
2023/07/10 11:17:15;;;;;;;6.85;2.35;;;;;;;32.18;31.19;102050.81;5072899;28;20073;-59
2023/07/10 11:19:41;;;;;;;8.43;2.67;;;;;;;32.23;31.03;102047.81;5073131;28;20297;-59
2023/07/10 11:22:34;;;;;;;8.30;2.40;;;;;;;32.19;32.00;102047.09;5072851;28;20118;-60
2023/07/10 11:25:01;;;;;;;7.90;2.67;;;;;;;31.90;31.88;102035.19;5063058;28;20119;-58
2023/07/10 11:27:33;;;;;;;7.60;2.70;;;;;;;32.43;31.45;102042.00;5054186;28;20028;-60
2023/07/10 11:30:13;;;;;;;8.02;2.67;;;;;;;31.97;30.64;102033.88;5072834;28;20024;-58